»·PEaware :: N701GT KHND-KSAN

N701GT :: KHND-KSAN

FLIGHT INFORMATION

Flight Status: Arrived
Operator: Privately registered:
United States
More flights under this callsign
Pilot: Anonymous 17564 (17564)
Aircraft: BEECH AIRCRAFT SUPER KING AIR COMMUTER
(BE20)
More flights by this aircraft type
Origin: KHND Henderson
United States
Destination: KSAN San Diego Intl-Lindbergh
United States
More flights between these airports :: More routes between these airports
Route: +PALLY5 LVELL LUCKI1
File this flight plan on PilotEdge
Remarks:
Altitude:
(Current/Filed)
22,000ft
Speed:
(Current/Filed)
300kts
Departed: 20-Aug-18 05:25 PM
Arrived: 20-Aug-18 06:23 PM
Distance/Time
Traveled:
219nm/0:58
Distance/Time
To Go:
Arrived

Flight Plot

Page will automatically refresh every two minutes.


Map Options




Map Legend


Flown Route
Filed Route
Departure Airport
Arrival Airport
Navaid (VOR, NDB)
Fix

Horizontal Profiles

Position Reports

Time Latitude Longitude Heading Altitude Ground
Speed
20-Aug-18 16:54 35.975458 -115.138191 0 2496ft 0kts
20-Aug-18 16:55 35.975458 -115.138191 0 2496ft 0kts
20-Aug-18 16:56 35.975458 -115.138191 0 2496ft 0kts
20-Aug-18 16:57 35.975458 -115.138191 0 2496ft 0kts
20-Aug-18 16:58 35.975458 -115.138191 0 2496ft 0kts
20-Aug-18 16:59 35.975458 -115.138191 0 2496ft 0kts
20-Aug-18 17:03 35.975460 -115.138191 0 2496ft 0kts
20-Aug-18 17:04 35.975460 -115.138191 0 2496ft 0kts
20-Aug-18 17:05 35.975460 -115.138191 0 2496ft 0kts
20-Aug-18 17:06 35.975460 -115.138191 0 2496ft 0kts
20-Aug-18 17:07 35.975460 -115.138191 0 2496ft 0kts
20-Aug-18 17:08 35.975460 -115.138191 0 2496ft 0kts
20-Aug-18 17:09 35.975460 -115.138191 0 2496ft 0kts
20-Aug-18 17:10 35.975460 -115.138191 0 2496ft 0kts
20-Aug-18 17:11 35.975463 -115.138191 0 2496ft 0kts
20-Aug-18 17:12 35.975816 -115.137869 92 2496ft 0kts
20-Aug-18 17:13 35.975816 -115.137869 92 2496ft 0kts
20-Aug-18 17:14 35.975816 -115.137869 92 2496ft 0kts
20-Aug-18 17:15 35.975816 -115.137869 92 2496ft 0kts
20-Aug-18 17:16 35.975816 -115.137869 92 2496ft 0kts
20-Aug-18 17:17 35.975816 -115.137869 92 2496ft 0kts
20-Aug-18 17:18 35.975816 -115.137869 92 2496ft 0kts
20-Aug-18 17:19 35.975816 -115.137869 92 2496ft 0kts
20-Aug-18 17:20 35.975902 -115.137016 20 2496ft 4kts
20-Aug-18 17:21 35.978322 -115.136446 359 2496ft 12kts
20-Aug-18 17:22 35.980419 -115.136425 2 2496ft 15kts
20-Aug-18 17:23 35.980853 -115.136312 72 2496ft 0kts
20-Aug-18 17:24 35.980853 -115.136312 72 2496ft 0kts
20-Aug-18 17:25 35.980853 -115.136312 72 2496ft 0kts
20-Aug-18 17:26 35.977795 -115.135423 180 2496ft 79kts
20-Aug-18 17:27 35.940296 -115.137621 205 4221ft 166kts
20-Aug-18 17:28 35.896199 -115.163680 180 6268ft 185kts
20-Aug-18 17:29 35.841140 -115.156360 181 6994ft 212kts
20-Aug-18 17:30 35.780325 -115.169290 208 7599ft 219kts
20-Aug-18 17:31 35.734262 -115.216869 223 9403ft 214kts
20-Aug-18 17:32 35.689665 -115.273372 218 9990ft 244kts
20-Aug-18 17:33 35.622309 -115.291255 184 9988ft 256kts
20-Aug-18 17:34 35.550741 -115.296810 185 10033ft 260kts
20-Aug-18 17:35 35.481383 -115.302805 183 11447ft 233kts
20-Aug-18 17:36 35.418329 -115.305079 183 13228ft 222kts
20-Aug-18 17:37 35.357012 -115.307375 183 15021ft 219kts
20-Aug-18 17:38 35.295925 -115.309776 183 16820ft 219kts
20-Aug-18 17:39 35.234878 -115.312170 183 18614ft 219kts
20-Aug-18 17:40 35.173894 -115.314546 183 20409ft 219kts
20-Aug-18 17:41 35.112670 -115.316959 183 21977ft 229kts
20-Aug-18 17:42 35.042387 -115.319766 183 22056ft 270kts
20-Aug-18 17:43 34.965249 -115.322781 183 22058ft 282kts
20-Aug-18 17:44 34.885374 -115.325901 182 22058ft 288kts
20-Aug-18 17:45 34.804635 -115.329037 182 22058ft 288kts
20-Aug-18 17:46 34.727768 -115.352837 200 22074ft 286kts
20-Aug-18 17:47 34.653168 -115.386352 200 22080ft 286kts
20-Aug-18 17:48 34.578548 -115.419378 199 22089ft 285kts
20-Aug-18 17:49 34.503144 -115.452378 199 22095ft 287kts
20-Aug-18 17:50 34.427752 -115.485243 199 22102ft 287kts
20-Aug-18 17:51 34.351849 -115.518250 199 22105ft 288kts
20-Aug-18 17:52 34.280619 -115.561529 210 22113ft 287kts
20-Aug-18 17:53 34.212782 -115.612922 210 22094ft 287kts
20-Aug-18 17:54 34.138948 -115.650750 199 22092ft 288kts
20-Aug-18 17:55 34.063517 -115.684589 200 22081ft 289kts
20-Aug-18 17:56 33.988543 -115.719525 200 22071ft 287kts
20-Aug-18 17:57 33.914134 -115.754632 201 22057ft 287kts
20-Aug-18 17:58 33.839917 -115.790985 201 22039ft 288kts
20-Aug-18 17:59 33.765085 -115.827648 201 22019ft 290kts
20-Aug-18 18:00 33.689891 -115.862910 200 21994ft 289kts
20-Aug-18 18:01 33.615002 -115.897833 200 21983ft 288kts
20-Aug-18 18:02 33.540317 -115.932748 201 21977ft 289kts
20-Aug-18 18:03 33.482946 -115.998836 232 20967ft 292kts
20-Aug-18 18:04 33.436389 -116.079200 234 19578ft 294kts
20-Aug-18 18:05 33.391278 -116.157597 233 18173ft 280kts
20-Aug-18 18:06 33.347079 -116.233590 233 16769ft 275kts
20-Aug-18 18:07 33.286558 -116.284698 203 15383ft 270kts
20-Aug-18 18:08 33.217512 -116.321511 204 13974ft 269kts
20-Aug-18 18:09 33.150301 -116.359768 205 12575ft 266kts
20-Aug-18 18:10 33.084698 -116.397963 205 11881ft 256kts
20-Aug-18 18:11 33.021633 -116.434755 205 11912ft 251kts
20-Aug-18 18:12 32.965059 -116.484076 219 11983ft 252kts
20-Aug-18 18:13 32.910826 -116.539612 219 11602ft 264kts
20-Aug-18 18:14 32.854890 -116.596161 220 10211ft 261kts
20-Aug-18 18:15 32.799377 -116.651980 220 8815ft 260kts
20-Aug-18 18:16 32.753759 -116.718104 240 7417ft 258kts
20-Aug-18 18:17 32.721320 -116.788624 240 6142ft 231kts
20-Aug-18 18:18 32.695904 -116.854247 249 5989ft 224kts
20-Aug-18 18:19 32.685819 -116.933828 273 5263ft 272kts
20-Aug-18 18:20 32.697918 -117.014806 278 3916ft 238kts
20-Aug-18 18:21 32.709080 -117.089163 285 2019ft 218kts
20-Aug-18 18:22 32.724084 -117.150876 283 695ft 155kts
20-Aug-18 18:23 32.732572 -117.185417 281 23ft 95kts
20-Aug-18 18:24 32.736189 -117.200608 283 19ft 23kts
20-Aug-18 18:25 32.735757 -117.202152 162 19ft 0kts
20-Aug-18 18:26 32.735157 -117.201788 76 19ft 4kts
20-Aug-18 18:27 32.734338 -117.197171 104 19ft 9kts
20-Aug-18 18:28 32.733229 -117.192668 104 19ft 24kts
20-Aug-18 18:29 32.734221 -117.187682 107 19ft 20kts
20-Aug-18 18:30 32.732431 -117.180205 96 19ft 16kts
20-Aug-18 18:31 32.734035 -117.179680 131 19ft 0kts
20-Aug-18 18:32 32.734035 -117.179680 131 19ft 0kts
20-Aug-18 18:33 32.734035 -117.179680 131 19ft 0kts
20-Aug-18 18:34 32.734035 -117.179680 131 19ft 0kts
20-Aug-18 18:35 32.734035 -117.179680 131 19ft 0kts
20-Aug-18 18:36 32.734035 -117.179680 131 19ft 0kts
20-Aug-18 18:37 32.734035 -117.179680 131 19ft 0kts
20-Aug-18 18:38 32.734035 -117.179680 131 19ft 0kts

Navigation Log

Ident Type
Flight plan parsing failed, navigation log unavailable